createdAt,value
2019-04-29T00:02:25.503Z,1.37
2019-04-29T00:04:54.888Z,1.10
2019-04-29T00:07:24.274Z,1.40
2019-04-29T00:09:53.795Z,1.15
2019-04-29T00:12:23.272Z,1.23
2019-04-29T00:14:54.454Z,1.27
2019-04-29T00:17:34.291Z,1.47
2019-04-29T00:20:07.070Z,1.22
2019-04-29T00:22:36.443Z,1.30
2019-04-29T00:25:06.264Z,1.20
2019-04-29T00:27:35.648Z,0.95
2019-04-29T00:30:08.652Z,1.18
2019-04-29T00:32:38.166Z,1.20
2019-04-29T00:35:08.088Z,1.47
2019-04-29T00:37:55.793Z,1.35
2019-04-29T00:40:42.874Z,1.43
2019-04-29T00:43:26.001Z,1.10
2019-04-29T00:45:55.523Z,1.20
2019-04-29T00:48:24.889Z,1.50
2019-04-29T00:50:54.266Z,1.37
2019-04-29T00:53:23.728Z,1.30
2019-04-29T00:55:53.569Z,1.63
2019-04-29T00:58:22.951Z,1.30
2019-04-29T01:00:52.769Z,1.27
2019-04-29T01:03:22.153Z,1.43
2019-04-29T01:05:51.633Z,1.30
2019-04-29T01:08:21.176Z,1.05
2019-04-29T01:10:50.556Z,1.50
2019-04-29T01:13:20.003Z,1.30
2019-04-29T01:15:49.383Z,1.53
2019-04-29T01:18:18.765Z,1.30
2019-04-29T01:20:53.867Z,1.15
2019-04-29T01:23:23.243Z,1.20
2019-04-29T01:25:54.271Z,1.22
2019-04-29T01:28:27.960Z,1.35
2019-04-29T01:31:03.476Z,1.17
2019-04-29T01:33:32.919Z,1.45
2019-04-29T01:36:10.481Z,1.30
2019-04-29T01:38:39.891Z,1.35
2019-04-29T01:41:10.902Z,1.30
2019-04-29T01:43:59.015Z,1.40
2019-04-29T01:46:29.302Z,1.30
2019-04-29T01:48:58.755Z,1.63
2019-04-29T01:51:29.197Z,1.40
2019-04-29T01:53:58.658Z,1.77
2019-04-29T01:56:28.033Z,1.52
2019-04-29T01:58:57.413Z,1.37
2019-04-29T02:01:26.865Z,1.40
2019-04-29T02:03:57.381Z,1.40
2019-04-29T02:06:27.106Z,1.33
2019-04-29T02:08:57.097Z,1.42
2019-04-29T02:11:26.535Z,1.70
2019-04-29T02:13:55.916Z,1.50
2019-04-29T02:16:25.306Z,1.85
2019-04-29T02:18:54.693Z,1.30
2019-04-29T02:21:24.155Z,1.15
2019-04-29T02:23:55.172Z,1.20
2019-04-29T02:26:24.542Z,1.45
2019-04-29T02:28:53.930Z,1.30
2019-04-29T02:31:38.421Z,1.52
2019-04-29T02:34:08.589Z,1.30
2019-04-29T02:36:38.557Z,1.42
2019-04-29T02:39:29.093Z,1.55
2019-04-29T02:42:16.615Z,1.40
2019-04-29T02:44:46.229Z,1.25
2019-04-29T02:47:15.688Z,1.72
2019-04-29T02:49:45.062Z,1.65
2019-04-29T02:52:14.449Z,1.37
2019-04-29T02:54:44.475Z,1.80
2019-04-29T02:57:15.576Z,1.50
2019-04-29T02:59:46.586Z,1.37
2019-04-29T03:02:20.372Z,1.77
2019-04-29T03:04:51.391Z,1.42
2019-04-29T03:07:21.622Z,1.25
2019-04-29T03:09:51.275Z,1.65
2019-04-29T03:12:20.699Z,1.40
2019-04-29T03:14:50.091Z,1.50
2019-04-29T03:17:19.535Z,1.30
2019-04-29T03:20:08.790Z,1.37
2019-04-29T03:22:42.802Z,1.42
2019-04-29T03:25:13.496Z,1.20
2019-04-29T03:27:42.871Z,1.30
2019-04-29T03:30:12.702Z,1.60
2019-04-29T03:32:42.162Z,1.40
2019-04-29T03:35:11.672Z,1.40
2019-04-29T03:37:41.060Z,1.60
2019-04-29T03:40:10.582Z,1.20
2019-04-29T03:42:39.972Z,1.50
2019-04-29T03:45:09.590Z,1.72
2019-04-29T03:47:38.973Z,1.60
2019-04-29T03:50:09.457Z,1.65
2019-04-29T03:52:38.855Z,1.10
2019-04-29T03:55:08.464Z,1.50
2019-04-29T03:57:38.314Z,1.40
2019-04-29T04:00:11.214Z,1.50
2019-04-29T04:02:48.204Z,1.40
2019-04-29T04:05:32.222Z,1.70
2019-04-29T04:08:03.232Z,1.25
2019-04-29T04:10:32.632Z,1.47
2019-04-29T04:13:02.039Z,1.60
2019-04-29T04:15:32.426Z,1.60
2019-04-29T04:18:21.549Z,1.67
2019-04-29T04:20:51.664Z,1.98
2019-04-29T04:23:21.882Z,4.17
2019-04-29T04:25:52.146Z,3.45
2019-04-29T04:28:22.319Z,4.25
2019-04-29T04:30:52.524Z,2.60
2019-04-29T04:33:22.853Z,2.55
2019-04-29T04:35:53.113Z,1.70
2019-04-29T04:38:23.372Z,1.70
2019-04-29T04:40:58.392Z,1.98
2019-04-29T04:43:27.772Z,1.60
2019-04-29T04:45:57.311Z,1.40
2019-04-29T04:48:26.728Z,1.60
2019-04-29T04:50:56.091Z,1.50
2019-04-29T04:53:25.467Z,1.53
2019-04-29T04:55:56.736Z,1.40
2019-04-29T04:58:27.185Z,1.73
2019-04-29T05:00:57.709Z,1.50
2019-04-29T05:03:27.086Z,1.50
2019-04-29T05:05:56.550Z,1.67
2019-04-29T05:08:26.892Z,1.40
2019-04-29T05:10:56.721Z,1.50
2019-04-29T05:13:28.598Z,1.54
2019-04-29T05:15:58.150Z,1.70
2019-04-29T05:18:27.532Z,1.60
2019-04-29T05:20:57.683Z,1.70
2019-04-29T05:23:27.956Z,1.77
2019-04-29T05:25:58.136Z,1.90
2019-04-29T05:28:28.555Z,2.00
2019-04-29T05:30:58.849Z,1.50
2019-04-29T05:33:29.054Z,1.60
2019-04-29T05:36:03.945Z,2.95
2019-04-29T05:38:40.969Z,3.00
2019-04-29T05:41:10.352Z,2.17
2019-04-29T05:43:57.299Z,1.87
2019-04-29T05:46:28.303Z,2.10
2019-04-29T05:48:57.696Z,1.97
2019-04-29T05:51:31.368Z,1.98
2019-04-29T05:54:02.807Z,1.95
2019-04-29T05:56:32.268Z,1.97
2019-04-29T05:59:01.665Z,1.67
2019-04-29T06:01:31.915Z,2.08
2019-04-29T06:04:02.132Z,2.10
2019-04-29T06:06:32.412Z,1.82
2019-04-29T06:09:02.671Z,1.85
2019-04-29T06:11:33.071Z,1.90
2019-04-29T06:14:04.372Z,1.53
2019-04-29T06:16:33.961Z,2.30
2019-04-29T06:19:05.920Z,1.73
2019-04-29T06:21:34.813Z,1.63
2019-04-29T06:24:06.243Z,1.63
2019-04-29T06:26:35.451Z,1.80
2019-04-29T06:29:06.034Z,1.60
2019-04-29T06:31:35.578Z,1.67
2019-04-29T06:34:06.525Z,1.60
2019-04-29T06:36:36.989Z,1.70
2019-04-29T06:39:07.680Z,1.60
2019-04-29T06:41:40.650Z,1.55
2019-04-29T06:44:15.767Z,1.50
2019-04-29T06:46:39.262Z,6.00
2019-04-29T06:49:10.472Z,1.42
2019-04-29T06:51:39.717Z,1.27
2019-04-29T06:54:09.102Z,1.57
2019-04-29T06:56:38.480Z,1.30
2019-04-29T06:59:11.989Z,1.30
2019-04-29T07:01:38.944Z,1.50
2019-04-29T07:04:08.468Z,1.30
2019-04-29T07:06:38.863Z,1.43
2019-04-29T07:09:08.836Z,1.30
2019-04-29T07:11:39.174Z,1.30
2019-04-29T07:14:09.292Z,1.65
2019-04-29T07:16:39.622Z,1.00
2019-04-29T07:19:09.819Z,1.00
2019-04-29T07:21:41.926Z,1.22
2019-04-29T07:24:11.230Z,1.20
2019-04-29T07:26:40.618Z,1.35
2019-04-29T07:29:10.802Z,1.14
2019-04-29T07:31:41.130Z,1.10
2019-04-29T07:34:11.437Z,1.30
2019-04-29T07:36:41.665Z,1.30
2019-04-29T07:39:11.723Z,1.00
2019-04-29T07:41:42.128Z,0.90
2019-04-29T07:44:13.756Z,0.70
2019-04-29T07:46:56.347Z,0.93
2019-04-29T07:49:17.256Z,0.90
2019-04-29T07:51:47.233Z,0.78
2019-04-29T07:54:17.725Z,0.70
2019-04-29T07:56:47.176Z,0.95
2019-04-29T07:59:16.547Z,0.60
2019-04-29T08:01:45.935Z,0.60
2019-04-29T08:04:15.384Z,0.68
2019-04-29T08:06:45.615Z,0.88
2019-04-29T08:09:15.003Z,0.70
2019-04-29T08:11:45.768Z,0.68
2019-04-29T08:14:15.485Z,0.60
2019-04-29T08:16:45.751Z,0.80
2019-04-29T08:19:15.863Z,0.60
2019-04-29T08:21:49.725Z,0.70
2019-04-29T08:24:17.371Z,0.80
2019-04-29T08:26:47.619Z,0.70
2019-04-29T08:29:17.279Z,0.70
2019-04-29T08:31:47.236Z,0.70
2019-04-29T08:34:18.695Z,0.52
2019-04-29T08:36:48.543Z,0.53
2019-04-29T08:39:17.984Z,0.53
2019-04-29T08:41:48.495Z,0.50
2019-04-29T08:44:22.782Z,0.64
2019-04-29T08:46:54.003Z,0.93
2019-04-29T08:49:23.378Z,0.50
2019-04-29T08:51:52.766Z,0.53
2019-04-29T08:54:22.460Z,0.40
2019-04-29T08:57:02.741Z,0.50
2019-04-29T08:59:24.600Z,0.47
2019-04-29T09:01:54.568Z,0.60
2019-04-29T09:04:23.959Z,0.50
2019-04-29T09:06:53.416Z,0.60
2019-04-29T09:09:29.137Z,0.47
2019-04-29T09:11:53.903Z,0.40
2019-04-29T09:14:23.282Z,0.50
2019-04-29T09:16:53.808Z,0.40
2019-04-29T09:19:23.763Z,0.40
2019-04-29T09:21:58.309Z,0.60
2019-04-29T09:24:27.686Z,0.50
2019-04-29T09:26:58.801Z,0.60
2019-04-29T09:29:32.640Z,0.43
2019-04-29T09:32:03.242Z,0.40
2019-04-29T09:34:32.614Z,0.57
2019-04-29T09:37:02.163Z,0.35
2019-04-29T09:39:43.140Z,0.40
2019-04-29T09:42:22.054Z,0.30
2019-04-29T09:44:58.483Z,0.40
2019-04-29T09:47:28.155Z,0.53
2019-04-29T09:49:57.608Z,0.50
2019-04-29T09:52:27.069Z,0.40
2019-04-29T09:54:59.540Z,0.57
2019-04-29T10:00:05.461Z,0.40
2019-04-29T10:02:35.495Z,0.40
2019-04-29T10:05:11.439Z,0.50
2019-04-29T10:07:41.893Z,0.53
2019-04-29T10:10:11.689Z,0.23
2019-04-29T10:12:41.075Z,0.50
2019-04-29T10:15:12.380Z,0.50
2019-04-29T10:17:50.070Z,0.50
2019-04-29T10:20:18.584Z,0.30
2019-04-29T10:22:50.217Z,0.47
2019-04-29T10:25:19.306Z,0.40
2019-04-29T10:27:48.688Z,0.42
2019-04-29T10:30:19.851Z,0.70
2019-04-29T10:32:49.248Z,0.20
2019-04-29T10:35:18.627Z,0.40
2019-04-29T10:37:48.189Z,0.40
2019-04-29T10:40:24.807Z,0.30
2019-04-29T10:43:02.445Z,0.50
2019-04-29T10:45:36.547Z,0.50
2019-04-29T10:48:23.968Z,0.70
2019-04-29T10:50:55.714Z,0.30
2019-04-29T10:53:25.272Z,0.40
2019-04-29T10:55:55.647Z,0.50
2019-04-29T10:58:30.286Z,0.50
2019-04-29T11:01:16.054Z,0.40
2019-04-29T11:03:45.507Z,0.40
2019-04-29T11:06:16.273Z,0.50
2019-04-29T11:08:50.162Z,0.70
2019-04-29T11:11:23.410Z,0.70
2019-04-29T11:13:51.059Z,0.60
2019-04-29T11:16:22.995Z,0.47
2019-04-29T11:18:55.058Z,0.53
2019-04-29T11:21:25.076Z,0.63
2019-04-29T11:23:56.563Z,0.50
2019-04-29T11:29:14.819Z,0.60
2019-04-29T11:31:44.369Z,0.57
2019-04-29T11:34:17.789Z,0.40
2019-04-29T11:36:46.553Z,0.65
2019-04-29T11:39:16.225Z,0.60
2019-04-29T11:41:49.937Z,0.40
2019-04-29T11:44:21.984Z,0.50
2019-04-29T11:46:50.652Z,0.60
2019-04-29T11:49:21.763Z,0.57
2019-04-29T11:52:08.591Z,0.60
2019-04-29T11:54:22.409Z,0.68
2019-04-29T11:56:51.815Z,0.50
2019-04-29T11:59:40.366Z,0.40
2019-04-29T12:02:44.619Z,0.82
2019-04-29T12:05:08.663Z,0.65
2019-04-29T12:07:36.309Z,0.70
2019-04-29T12:10:07.938Z,0.53
2019-04-29T12:12:37.471Z,0.42
2019-04-29T12:15:21.837Z,0.73
2019-04-29T12:18:08.840Z,0.47
2019-04-29T12:20:39.860Z,0.43
2019-04-29T12:23:11.068Z,0.50
2019-04-29T12:25:40.911Z,0.70
2019-04-29T12:28:18.864Z,0.50
2019-04-29T12:30:44.214Z,0.50
2019-04-29T12:33:32.417Z,0.50
2019-04-29T12:36:06.514Z,0.70
2019-04-29T12:38:48.768Z,0.60
2019-04-29T12:41:21.153Z,0.50
2019-04-29T12:43:59.508Z,0.60
2019-04-29T12:46:48.542Z,0.70
2019-04-29T12:49:17.995Z,0.55
2019-04-29T12:51:47.463Z,0.60
2019-04-29T12:54:16.867Z,0.50
2019-04-29T12:56:47.708Z,0.50
2019-04-29T12:59:17.338Z,0.53
2019-04-29T13:01:57.719Z,0.55
2019-04-29T13:04:38.684Z,0.40
2019-04-29T13:07:13.375Z,0.50
2019-04-29T13:09:45.348Z,0.60
2019-04-29T13:12:19.425Z,0.50
2019-04-29T13:15:07.859Z,0.50
2019-04-29T13:17:42.221Z,0.60
2019-04-29T13:20:13.128Z,0.60
2019-04-29T13:22:43.615Z,0.60
2019-04-29T13:25:15.625Z,0.45
2019-04-29T13:27:44.519Z,0.80
2019-04-29T13:30:16.189Z,0.60
2019-04-29T13:32:45.428Z,0.50
2019-04-29T13:35:14.951Z,0.50
2019-04-29T13:37:44.330Z,0.45
2019-04-29T13:40:14.446Z,0.50
2019-04-29T13:42:48.592Z,0.60
2019-04-29T13:45:24.373Z,0.50
2019-04-29T13:47:56.806Z,0.50
2019-04-29T13:50:39.458Z,0.57
2019-04-29T13:53:02.068Z,0.57
2019-04-29T13:55:47.692Z,0.60
2019-04-29T13:58:02.511Z,0.60
2019-04-29T14:00:42.479Z,0.45
2019-04-29T14:03:13.516Z,0.60
2019-04-29T14:05:42.963Z,0.40
2019-04-29T14:08:12.364Z,0.50
2019-04-29T14:10:41.762Z,0.53
2019-04-29T14:13:16.321Z,0.50
2019-04-29T14:15:42.361Z,0.55
2019-04-29T14:18:12.131Z,0.50
2019-04-29T14:20:47.229Z,0.50
2019-04-29T14:23:14.228Z,0.50
2019-04-29T14:25:43.635Z,0.37
2019-04-29T14:28:13.069Z,0.47
2019-04-29T14:30:43.684Z,0.67
2019-04-29T14:33:13.601Z,0.50
2019-04-29T14:35:59.450Z,0.67
2019-04-29T14:38:27.769Z,0.40
2019-04-29T14:40:57.149Z,0.50
2019-04-29T14:43:43.559Z,0.40
2019-04-29T14:46:17.548Z,0.60
2019-04-29T14:48:51.544Z,0.45
2019-04-29T14:51:20.899Z,0.50
2019-04-29T14:53:56.768Z,0.40
2019-04-29T14:56:21.366Z,0.40
2019-04-29T14:58:50.798Z,0.45
2019-04-29T15:01:27.906Z,0.40
2019-04-29T15:03:58.934Z,0.50
2019-04-29T15:06:29.081Z,0.50
2019-04-29T15:08:58.835Z,0.50
2019-04-29T15:11:32.077Z,0.70
2019-04-29T15:14:23.741Z,0.53
2019-04-29T15:17:03.799Z,0.50
2019-04-29T15:19:48.705Z,0.60
2019-04-29T15:24:45.103Z,0.60
2019-04-29T15:27:14.494Z,0.50
2019-04-29T15:29:43.880Z,0.60
2019-04-29T15:32:13.261Z,0.60
2019-04-29T15:34:44.019Z,0.65
2019-04-29T15:37:13.730Z,0.68
2019-04-29T15:39:46.073Z,0.72
2019-04-29T15:42:14.234Z,0.53
2019-04-29T15:44:43.607Z,0.42
2019-04-29T15:47:13.009Z,0.67
2019-04-29T15:49:42.383Z,0.40
2019-04-29T15:52:11.834Z,0.50
2019-04-29T15:54:41.292Z,0.67
2019-04-29T15:57:15.258Z,0.65
2019-04-29T15:59:49.063Z,0.40
2019-04-29T16:02:12.996Z,0.60
2019-04-29T16:05:04.488Z,0.50
2019-04-29T16:07:46.610Z,0.63
2019-04-29T16:10:21.888Z,0.50
2019-04-29T16:12:52.919Z,0.40
2019-04-29T16:15:22.316Z,0.47
2019-04-29T16:17:51.724Z,0.50
2019-04-29T16:20:21.112Z,0.60
2019-04-29T16:22:54.377Z,0.60
2019-04-29T16:25:21.833Z,0.60
2019-04-29T16:27:53.308Z,0.70
2019-04-29T16:30:25.920Z,0.50
2019-04-29T16:32:54.421Z,0.57
2019-04-29T16:35:26.012Z,0.57
2019-04-29T16:40:25.235Z,0.50
2019-04-29T16:42:59.212Z,0.50
2019-04-29T16:45:44.151Z,0.60
2019-04-29T16:48:14.302Z,0.55
2019-04-29T16:50:43.757Z,0.57
2019-04-29T16:53:13.207Z,0.50
2019-04-29T16:55:44.295Z,0.60
2019-04-29T16:58:17.919Z,0.50
2019-04-29T17:00:46.743Z,0.50
2019-04-29T17:03:17.286Z,0.40
2019-04-29T17:05:46.687Z,0.35
2019-04-29T17:08:17.520Z,0.75
2019-04-29T17:10:49.058Z,0.60
2019-04-29T17:13:27.109Z,0.60
2019-04-29T17:15:56.762Z,0.60
2019-04-29T17:18:26.229Z,0.50
2019-04-29T17:21:04.588Z,0.37
2019-04-29T17:23:26.732Z,0.45
2019-04-29T17:25:56.271Z,0.30
2019-04-29T17:28:29.716Z,0.60
2019-04-29T17:31:01.340Z,0.43
2019-04-29T17:33:35.949Z,0.60
2019-04-29T17:36:07.225Z,0.30
2019-04-29T17:38:36.610Z,0.50
2019-04-29T17:41:06.083Z,0.50
2019-04-29T17:43:42.895Z,0.50
2019-04-29T17:46:28.864Z,0.60
2019-04-29T17:49:14.705Z,0.80
2019-04-29T17:51:45.966Z,1.87
2019-04-29T17:54:18.261Z,3.87
2019-04-29T17:56:49.413Z,3.00
2019-04-29T17:59:27.204Z,2.93
2019-04-29T18:02:07.609Z,8.80
2019-04-29T18:04:41.795Z,2.13
2019-04-29T18:07:12.861Z,1.00
2019-04-29T18:09:47.590Z,4.03
2019-04-29T18:12:18.635Z,1.77
2019-04-29T18:14:49.054Z,0.65
2019-04-29T18:17:27.134Z,0.60
2019-04-29T18:19:53.170Z,0.60
2019-04-29T18:22:42.457Z,0.80
2019-04-29T18:25:30.779Z,1.20
2019-04-29T18:27:59.903Z,3.77
2019-04-29T18:30:35.415Z,1.43
2019-04-29T18:32:57.850Z,1.30
2019-04-29T18:35:27.262Z,1.02
2019-04-29T18:37:56.639Z,0.50
2019-04-29T18:40:26.111Z,0.50
2019-04-29T18:42:55.541Z,0.60
2019-04-29T18:45:25.417Z,0.40
2019-04-29T18:47:56.047Z,0.70
2019-04-29T18:50:25.505Z,0.90
2019-04-29T18:52:56.051Z,2.60
2019-04-29T18:55:25.822Z,3.68
2019-04-29T18:57:58.417Z,2.70
2019-04-29T19:00:27.969Z,1.60
2019-04-29T19:03:00.849Z,1.57
2019-04-29T19:05:32.396Z,3.03
2019-04-29T19:08:12.180Z,2.20
2019-04-29T19:10:36.813Z,3.53
2019-04-29T19:13:12.391Z,2.07
2019-04-29T19:15:39.893Z,1.03
2019-04-29T19:18:07.929Z,1.10
2019-04-29T19:20:37.454Z,0.70
2019-04-29T19:23:10.051Z,0.30
2019-04-29T19:25:41.633Z,0.50
2019-04-29T19:28:14.319Z,0.30
2019-04-29T19:30:41.236Z,0.40
2019-04-29T19:33:10.689Z,0.40
2019-04-29T19:35:40.234Z,0.35
2019-04-29T19:38:12.472Z,0.30
2019-04-29T19:40:42.611Z,0.20
2019-04-29T19:43:17.186Z,0.50
2019-04-29T19:45:44.660Z,0.30
2019-04-29T19:48:16.068Z,0.30
2019-04-29T19:50:49.519Z,0.30
2019-04-29T19:53:16.706Z,0.40
2019-04-29T19:55:46.411Z,0.43
2019-04-29T19:58:16.231Z,0.33
2019-04-29T20:00:47.329Z,0.27
2019-04-29T20:03:23.948Z,0.30
2019-04-29T20:06:07.579Z,0.30
2019-04-29T20:08:46.232Z,0.20
2019-04-29T20:11:11.164Z,0.30
2019-04-29T20:13:31.300Z,0.30
2019-04-29T20:16:10.957Z,0.40
2019-04-29T20:18:40.311Z,0.30
2019-04-29T20:21:25.329Z,0.50
2019-04-29T20:23:53.233Z,0.20
2019-04-29T20:26:28.533Z,0.20
2019-04-29T20:28:55.506Z,0.20
2019-04-29T20:31:25.905Z,0.30
2019-04-29T20:33:56.070Z,0.33
2019-04-29T20:36:38.477Z,0.33
2019-04-29T20:38:57.980Z,0.40
2019-04-29T20:41:40.112Z,0.30
2019-04-29T20:44:00.762Z,0.40
2019-04-29T20:46:43.231Z,0.30
2019-04-29T20:49:01.482Z,2.30
2019-04-29T20:51:47.872Z,0.30
2019-04-29T20:54:15.998Z,0.20
2019-04-29T20:56:42.058Z,0.33
2019-04-29T20:59:13.024Z,0.50
2019-04-29T21:01:44.758Z,0.30
2019-04-29T21:04:29.752Z,0.30
2019-04-29T21:06:59.456Z,0.30
2019-04-29T21:12:06.064Z,0.50
2019-04-29T21:14:38.319Z,0.47
2019-04-29T21:17:11.071Z,0.30
2019-04-29T21:19:39.764Z,0.30
2019-04-29T21:22:12.941Z,0.50
2019-04-29T21:24:40.449Z,0.50
2019-04-29T21:27:09.830Z,0.30
2019-04-29T21:29:39.427Z,0.20
2019-04-29T21:32:08.817Z,0.30
2019-04-29T21:34:39.844Z,0.40
2019-04-29T21:40:18.571Z,0.30
2019-04-29T21:42:47.428Z,0.30
2019-04-29T21:47:52.935Z,0.30
2019-04-29T21:50:18.218Z,0.30
2019-04-29T21:52:47.609Z,0.30
2019-04-29T21:55:20.667Z,0.30
2019-04-29T22:03:26.597Z,0.37
2019-04-29T22:05:53.588Z,0.30
2019-04-29T22:08:27.072Z,0.30
2019-04-29T22:11:12.864Z,0.30
2019-04-29T22:13:42.247Z,0.35
2019-04-29T22:16:15.821Z,0.40
2019-04-29T22:18:44.672Z,0.40
2019-04-29T22:21:21.770Z,0.40
2019-04-29T22:23:50.926Z,0.30
2019-04-29T22:26:23.061Z,0.30
2019-04-29T22:28:48.986Z,0.40
2019-04-29T22:31:19.411Z,0.33
2019-04-29T22:33:49.045Z,0.28
2019-04-29T22:36:19.571Z,0.20
2019-04-29T22:38:51.945Z,0.33
2019-04-29T22:41:21.694Z,0.50
2019-04-29T22:43:52.716Z,0.30
2019-04-29T22:46:22.270Z,0.33
2019-04-29T22:48:51.650Z,0.30
2019-04-29T22:51:21.040Z,0.35
2019-04-29T22:53:50.466Z,0.20
2019-04-29T22:56:19.849Z,0.45
2019-04-29T22:58:49.242Z,0.40
2019-04-29T23:01:18.635Z,0.30
2019-04-29T23:03:48.036Z,0.30
2019-04-29T23:06:17.424Z,0.20
2019-04-29T23:08:46.825Z,0.30
2019-04-29T23:11:16.216Z,0.30
2019-04-29T23:13:47.609Z,0.30
2019-04-29T23:16:16.955Z,0.40
2019-04-29T23:18:46.406Z,0.33
2019-04-29T23:21:37.344Z,0.30
2019-04-29T23:24:21.700Z,0.30
2019-04-29T23:26:51.097Z,0.42
2019-04-29T23:29:20.478Z,0.20
2019-04-29T23:31:49.870Z,0.42
2019-04-29T23:34:19.275Z,0.20
2019-04-29T23:36:50.055Z,0.37
2019-04-29T23:39:19.507Z,0.30
2019-04-29T23:41:48.879Z,0.20
2019-04-29T23:44:18.276Z,0.30
2019-04-29T23:46:47.686Z,0.20
2019-04-29T23:49:17.066Z,0.20
2019-04-29T23:51:46.600Z,0.23
2019-04-29T23:54:16.092Z,0.30
2019-04-29T23:56:53.101Z,0.20
